createdAt,value
2019-05-20T00:00:16.652Z,14.10
2019-05-20T00:01:16.803Z,13.92
2019-05-20T00:02:26.022Z,13.76
2019-05-20T00:03:17.102Z,13.88
2019-05-20T00:04:17.253Z,13.96
2019-05-20T00:05:17.415Z,13.71
2019-05-20T00:06:17.536Z,13.79
2019-05-20T00:07:17.682Z,13.61
2019-05-20T00:08:17.832Z,13.71
2019-05-20T00:09:17.985Z,13.79
2019-05-20T00:10:18.133Z,13.73
2019-05-20T00:11:18.290Z,13.79
2019-05-20T00:12:18.444Z,13.83
2019-05-20T00:13:18.593Z,13.81
2019-05-20T00:14:18.743Z,13.76
2019-05-20T00:15:18.894Z,13.80
2019-05-20T00:16:19.040Z,13.87
2019-05-20T00:17:19.190Z,13.76
2019-05-20T00:18:19.340Z,13.77
2019-05-20T00:19:19.492Z,13.83
2019-05-20T00:20:19.637Z,13.70
2019-05-20T00:21:19.786Z,13.61
2019-05-20T00:22:19.938Z,13.67
2019-05-20T00:23:20.089Z,13.67
2019-05-20T00:24:20.240Z,13.77
2019-05-20T00:25:20.389Z,13.77
2019-05-20T00:26:20.540Z,13.74
2019-05-20T00:27:20.688Z,13.71
2019-05-20T00:28:20.844Z,13.80
2019-05-20T00:29:20.993Z,13.70
2019-05-20T00:30:21.143Z,13.71
2019-05-20T00:31:21.289Z,13.70
2019-05-20T00:32:21.441Z,13.69
2019-05-20T00:33:21.594Z,13.56
2019-05-20T00:34:34.303Z,13.46
2019-05-20T00:35:21.891Z,13.51
2019-05-20T00:36:22.042Z,13.54
2019-05-20T00:37:22.191Z,13.56
2019-05-20T00:38:22.342Z,13.63
2019-05-20T00:39:22.491Z,13.71
2019-05-20T00:40:22.660Z,13.70
2019-05-20T00:41:22.792Z,13.65
2019-05-20T00:42:22.941Z,13.77
2019-05-20T00:43:23.093Z,13.79
2019-05-20T00:44:23.240Z,13.77
2019-05-20T00:45:23.387Z,13.83
2019-05-20T00:46:23.536Z,13.87
2019-05-20T00:47:23.691Z,13.83
2019-05-20T00:48:23.841Z,13.88
2019-05-20T00:49:23.991Z,13.89
2019-05-20T00:50:24.137Z,13.91
2019-05-20T00:51:24.288Z,13.94
2019-05-20T00:52:24.439Z,13.92
2019-05-20T00:53:24.588Z,13.87
2019-05-20T00:54:24.738Z,14.12
2019-05-20T00:55:24.887Z,14.14
2019-05-20T00:56:25.036Z,14.10
2019-05-20T00:57:25.191Z,14.10
2019-05-20T00:58:25.339Z,14.09
2019-05-20T00:59:25.491Z,14.09
2019-05-20T01:00:25.641Z,14.12
2019-05-20T01:01:25.791Z,14.06
2019-05-20T01:02:25.944Z,13.95
2019-05-20T01:03:26.089Z,14.17
2019-05-20T01:04:26.242Z,14.16
2019-05-20T01:05:26.409Z,14.17
2019-05-20T01:06:26.542Z,14.19
2019-05-20T01:07:26.693Z,14.31
2019-05-20T01:08:26.842Z,14.27
2019-05-20T01:09:26.993Z,14.20
2019-05-20T01:10:27.142Z,14.25
2019-05-20T01:11:27.291Z,14.29
2019-05-20T01:12:27.453Z,14.31
2019-05-20T01:13:27.593Z,14.28
2019-05-20T01:14:27.745Z,14.28
2019-05-20T01:15:27.893Z,14.28
2019-05-20T01:16:28.043Z,14.31
2019-05-20T01:17:28.194Z,14.31
2019-05-20T01:18:28.343Z,14.13
2019-05-20T01:19:28.493Z,14.17
2019-05-20T01:20:28.646Z,14.24
2019-05-20T01:21:28.794Z,14.20
2019-05-20T01:22:28.945Z,14.12
2019-05-20T01:23:29.095Z,14.20
2019-05-20T01:24:29.350Z,14.32
2019-05-20T01:25:29.394Z,14.32
2019-05-20T01:26:29.548Z,14.34
2019-05-20T01:27:29.705Z,14.42
2019-05-20T01:28:29.844Z,14.39
2019-05-20T01:29:29.995Z,14.35
2019-05-20T01:30:30.144Z,14.42
2019-05-20T01:31:30.295Z,14.37
2019-05-20T01:32:30.445Z,14.31
2019-05-20T01:33:30.602Z,14.34
2019-05-20T01:34:30.740Z,14.39
2019-05-20T01:35:30.906Z,14.29
2019-05-20T01:36:31.060Z,14.24
2019-05-20T01:37:31.209Z,14.31
2019-05-20T01:38:31.358Z,14.32
2019-05-20T01:39:31.557Z,14.34
2019-05-20T01:40:31.663Z,14.35
2019-05-20T01:41:31.813Z,14.28
2019-05-20T01:42:31.963Z,14.27
2019-05-20T01:43:32.114Z,14.28
2019-05-20T01:44:32.263Z,14.34
2019-05-20T01:45:32.414Z,14.31
2019-05-20T01:46:32.564Z,14.24
2019-05-20T01:47:32.717Z,14.14
2019-05-20T01:48:32.869Z,14.06
2019-05-20T01:49:33.021Z,14.06
2019-05-20T01:50:33.171Z,14.04
2019-05-20T01:51:33.323Z,13.99
2019-05-20T01:52:33.479Z,13.91
2019-05-20T01:53:33.627Z,13.89
2019-05-20T01:54:33.771Z,13.88
2019-05-20T01:55:33.922Z,13.91
2019-05-20T01:56:34.074Z,13.89
2019-05-20T01:57:34.222Z,13.88
2019-05-20T01:58:34.371Z,13.84
2019-05-20T01:59:34.521Z,13.89
2019-05-20T02:00:34.674Z,13.88
2019-05-20T02:01:34.824Z,13.87
2019-05-20T02:02:34.980Z,13.83
2019-05-20T02:03:35.127Z,13.91
2019-05-20T02:04:35.276Z,13.87
2019-05-20T02:05:35.426Z,13.84
2019-05-20T02:06:35.574Z,13.73
2019-05-20T02:07:35.729Z,13.74
2019-05-20T02:08:35.876Z,13.58
2019-05-20T02:09:36.030Z,13.80
2019-05-20T02:10:36.177Z,13.88
2019-05-20T02:11:36.327Z,13.88
2019-05-20T02:12:36.497Z,13.80
2019-05-20T02:13:36.626Z,13.79
2019-05-20T02:14:36.782Z,13.67
2019-05-20T02:15:36.929Z,13.73
2019-05-20T02:16:37.105Z,13.71
2019-05-20T02:17:37.233Z,13.77
2019-05-20T02:18:37.382Z,13.80
2019-05-20T02:19:37.533Z,13.63
2019-05-20T02:20:37.730Z,13.69
2019-05-20T02:21:37.852Z,13.69
2019-05-20T02:22:37.998Z,13.77
2019-05-20T02:23:38.147Z,13.76
2019-05-20T02:24:38.295Z,13.84
2019-05-20T02:25:38.450Z,13.80
2019-05-20T02:26:38.596Z,13.87
2019-05-20T02:27:38.759Z,13.74
2019-05-20T02:28:38.900Z,13.88
2019-05-20T02:29:39.052Z,13.87
2019-05-20T02:30:39.207Z,13.73
2019-05-20T02:31:39.353Z,13.77
2019-05-20T02:32:39.502Z,13.79
2019-05-20T02:33:51.095Z,13.89
2019-05-20T02:34:39.802Z,13.91
2019-05-20T02:35:39.956Z,13.88
2019-05-20T02:36:40.105Z,13.98
2019-05-20T02:37:40.272Z,13.81
2019-05-20T02:38:40.426Z,13.89
2019-05-20T02:39:40.557Z,13.84
2019-05-20T02:40:40.708Z,13.94
2019-05-20T02:41:40.859Z,13.95
2019-05-20T02:42:41.011Z,13.88
2019-05-20T02:43:41.160Z,13.88
2019-05-20T02:44:41.316Z,13.77
2019-05-20T02:45:41.468Z,13.79
2019-05-20T02:46:41.619Z,13.71
2019-05-20T02:47:41.771Z,13.71
2019-05-20T02:48:41.921Z,13.80
2019-05-20T02:49:42.072Z,13.81
2019-05-20T02:50:42.245Z,13.92
2019-05-20T02:51:42.374Z,13.96
2019-05-20T02:52:42.523Z,13.87
2019-05-20T02:53:42.675Z,13.81
2019-05-20T02:54:42.827Z,13.81
2019-05-20T02:55:42.996Z,13.89
2019-05-20T02:56:43.129Z,13.76
2019-05-20T02:57:43.284Z,13.67
2019-05-20T02:58:43.431Z,13.63
2019-05-20T02:59:43.581Z,13.71
2019-05-20T03:00:43.742Z,13.62
2019-05-20T03:01:43.892Z,13.71
2019-05-20T03:02:44.040Z,13.61
2019-05-20T03:03:44.192Z,13.65
2019-05-20T03:04:44.343Z,13.74
2019-05-20T03:05:44.494Z,13.74
2019-05-20T03:06:44.652Z,13.81
2019-05-20T03:07:44.796Z,13.77
2019-05-20T03:08:44.945Z,13.83
2019-05-20T03:09:45.095Z,13.84
2019-05-20T03:10:45.244Z,13.81
2019-05-20T03:11:45.397Z,13.84
2019-05-20T03:12:45.547Z,13.88
2019-05-20T03:13:45.698Z,13.88
2019-05-20T03:14:45.848Z,13.92
2019-05-20T03:15:45.999Z,13.88
2019-05-20T03:16:46.152Z,13.88
2019-05-20T03:17:46.311Z,13.76
2019-05-20T03:18:46.458Z,13.83
2019-05-20T03:19:46.610Z,13.71
2019-05-20T03:20:46.758Z,13.71
2019-05-20T03:21:46.909Z,13.71
2019-05-20T03:22:47.061Z,13.74
2019-05-20T03:23:47.210Z,13.81
2019-05-20T03:24:47.362Z,13.89
2019-05-20T03:25:47.513Z,13.88
2019-05-20T03:26:47.664Z,13.89
2019-05-20T03:27:47.821Z,13.88
2019-05-20T03:28:47.967Z,13.87
2019-05-20T03:29:48.116Z,13.81
2019-05-20T03:30:48.268Z,13.76
2019-05-20T03:31:48.419Z,13.74
2019-05-20T03:32:48.582Z,13.61
2019-05-20T03:33:48.733Z,13.63
2019-05-20T03:34:58.730Z,13.62
2019-05-20T03:35:49.022Z,13.58
2019-05-20T03:36:49.170Z,13.73
2019-05-20T03:37:49.325Z,13.79
2019-05-20T03:38:49.481Z,13.76
2019-05-20T03:39:49.622Z,13.69
2019-05-20T03:40:49.779Z,13.70
2019-05-20T03:41:49.926Z,13.84
2019-05-20T03:42:50.078Z,13.77
2019-05-20T03:43:50.231Z,13.77
2019-05-20T03:44:50.378Z,13.84
2019-05-20T03:45:50.529Z,13.74
2019-05-20T03:46:50.680Z,13.74
2019-05-20T03:47:50.828Z,13.79
2019-05-20T03:48:50.982Z,13.89
2019-05-20T03:49:51.135Z,13.92
2019-05-20T03:50:51.283Z,13.92
2019-05-20T03:51:52.525Z,13.94
2019-05-20T03:52:51.595Z,13.80
2019-05-20T03:53:51.740Z,13.77
2019-05-20T03:54:51.890Z,13.74
2019-05-20T03:55:52.042Z,13.80
2019-05-20T03:56:52.191Z,13.76
2019-05-20T03:57:52.341Z,13.81
2019-05-20T03:58:52.490Z,13.77
2019-05-20T03:59:52.644Z,13.70
2019-05-20T04:00:52.819Z,13.69
2019-05-20T04:01:52.946Z,13.70
2019-05-20T04:02:53.101Z,13.59
2019-05-20T04:03:53.251Z,13.67
2019-05-20T04:05:01.909Z,13.55
2019-05-20T04:05:53.552Z,13.59
2019-05-20T04:06:53.703Z,13.63
2019-05-20T04:07:53.855Z,13.59
2019-05-20T04:08:54.003Z,13.70
2019-05-20T04:09:54.155Z,13.79
2019-05-20T04:10:54.303Z,13.76
2019-05-20T04:11:54.456Z,13.74
2019-05-20T04:12:54.608Z,13.76
2019-05-20T04:13:54.759Z,13.80
2019-05-20T04:14:54.910Z,13.73
2019-05-20T04:15:55.063Z,13.83
2019-05-20T04:16:55.212Z,13.83
2019-05-20T04:17:55.364Z,13.74
2019-05-20T04:18:55.556Z,13.63
2019-05-20T04:19:55.669Z,13.80
2019-05-20T04:20:55.816Z,13.79
2019-05-20T04:21:55.967Z,13.80
2019-05-20T04:22:56.117Z,13.91
2019-05-20T04:24:00.807Z,13.84
2019-05-20T04:24:56.420Z,13.77
2019-05-20T04:25:56.579Z,13.83
2019-05-20T04:26:56.722Z,13.87
2019-05-20T04:27:56.877Z,13.84
2019-05-20T04:28:57.025Z,13.79
2019-05-20T04:29:57.177Z,13.92
2019-05-20T04:30:57.330Z,13.81
2019-05-20T04:31:57.482Z,13.87
2019-05-20T04:32:57.631Z,13.88
2019-05-20T04:33:57.781Z,13.76
2019-05-20T04:34:57.936Z,13.87
2019-05-20T04:35:58.088Z,13.96
2019-05-20T04:36:58.275Z,13.91
2019-05-20T04:37:58.389Z,13.92
2019-05-20T04:38:58.539Z,13.84
2019-05-20T04:39:58.697Z,13.84
2019-05-20T04:40:58.844Z,13.87
2019-05-20T04:41:58.994Z,13.92
2019-05-20T04:42:59.147Z,13.92
2019-05-20T04:43:59.299Z,14.02
2019-05-20T04:44:59.446Z,14.14
2019-05-20T04:45:59.599Z,14.09
2019-05-20T04:46:59.843Z,14.24
2019-05-20T04:47:59.900Z,14.28
2019-05-20T04:49:00.053Z,14.17
2019-05-20T04:50:00.204Z,14.29
2019-05-20T04:51:00.353Z,14.28
2019-05-20T04:52:00.505Z,14.29
2019-05-20T04:53:00.658Z,14.14
2019-05-20T04:54:00.811Z,14.29
2019-05-20T04:55:00.961Z,14.28
2019-05-20T04:56:01.115Z,14.29
2019-05-20T04:57:01.262Z,14.20
2019-05-20T04:58:01.423Z,14.19
2019-05-20T04:59:01.565Z,14.21
2019-05-20T05:00:01.717Z,14.17
2019-05-20T05:01:01.898Z,14.19
2019-05-20T05:02:02.049Z,14.28
2019-05-20T05:03:02.204Z,14.32
2019-05-20T05:04:02.355Z,14.28
2019-05-20T05:05:02.594Z,14.38
2019-05-20T05:06:02.656Z,14.49
2019-05-20T05:07:02.811Z,14.60
2019-05-20T05:08:02.960Z,14.65
2019-05-20T05:09:03.131Z,14.49
2019-05-20T05:10:03.274Z,14.47
2019-05-20T05:11:03.421Z,14.34
2019-05-20T05:12:03.577Z,14.46
2019-05-20T05:13:03.726Z,14.56
2019-05-20T05:14:03.883Z,14.69
2019-05-20T05:15:07.739Z,14.86
2019-05-20T05:16:04.183Z,14.91
2019-05-20T05:17:04.337Z,14.75
2019-05-20T05:18:04.483Z,14.83
2019-05-20T05:19:04.690Z,14.83
2019-05-20T05:20:04.827Z,14.81
2019-05-20T05:21:04.935Z,14.87
2019-05-20T05:22:05.094Z,14.99
2019-05-20T05:23:05.242Z,15.06
2019-05-20T05:24:05.396Z,15.09
2019-05-20T05:25:05.544Z,15.15
2019-05-20T05:26:05.701Z,15.15
2019-05-20T05:27:05.852Z,15.13
2019-05-20T05:28:06.002Z,15.08
2019-05-20T05:29:06.154Z,15.03
2019-05-20T05:30:06.308Z,15.11
2019-05-20T05:31:06.458Z,15.17
2019-05-20T05:32:06.610Z,15.17
2019-05-20T05:33:06.760Z,15.30
2019-05-20T05:34:06.913Z,15.24
2019-05-20T05:35:07.068Z,15.26
2019-05-20T05:36:07.217Z,15.11
2019-05-20T05:37:07.372Z,15.13
2019-05-20T05:38:07.578Z,15.12
2019-05-20T05:39:07.670Z,15.17
2019-05-20T05:40:08.339Z,15.06
2019-05-20T05:41:07.978Z,15.11
2019-05-20T05:42:08.130Z,15.01
2019-05-20T05:43:08.284Z,15.12
2019-05-20T05:44:08.436Z,15.28
2019-05-20T05:45:08.589Z,15.30
2019-05-20T05:46:08.742Z,15.41
2019-05-20T05:47:08.891Z,15.27
2019-05-20T05:48:09.044Z,15.28
2019-05-20T05:49:09.198Z,15.30
2019-05-20T05:50:09.348Z,15.42
2019-05-20T05:51:09.501Z,15.42
2019-05-20T05:52:09.656Z,15.33
2019-05-20T05:53:09.809Z,15.36
2019-05-20T05:54:09.960Z,15.45
2019-05-20T05:55:10.111Z,15.38
2019-05-20T05:56:10.263Z,15.36
2019-05-20T05:57:10.417Z,15.31
2019-05-20T05:58:10.567Z,15.38
2019-05-20T05:59:10.729Z,15.36
2019-05-20T06:00:10.876Z,15.43
2019-05-20T06:01:11.025Z,15.51
2019-05-20T06:02:11.175Z,15.57
2019-05-20T06:03:11.334Z,15.64
2019-05-20T06:04:11.482Z,15.79
2019-05-20T06:05:11.632Z,15.89
2019-05-20T06:06:13.343Z,15.64
2019-05-20T06:07:11.937Z,15.85
2019-05-20T06:08:12.099Z,15.96
2019-05-20T06:09:12.243Z,16.06
2019-05-20T06:10:12.394Z,15.88
2019-05-20T06:11:12.552Z,16.00
2019-05-20T06:12:12.707Z,16.04
2019-05-20T06:13:12.859Z,16.20
2019-05-20T06:14:13.008Z,16.31
2019-05-20T06:15:13.163Z,16.42
2019-05-20T06:16:13.311Z,16.40
2019-05-20T06:17:13.467Z,16.15
2019-05-20T06:18:13.622Z,16.34
2019-05-20T06:19:13.774Z,16.33
2019-05-20T06:20:13.924Z,16.55
2019-05-20T06:21:14.097Z,16.63
2019-05-20T06:22:14.687Z,16.85
2019-05-20T06:23:14.385Z,16.98
2019-05-20T06:24:14.535Z,17.11
2019-05-20T06:25:14.720Z,17.15
2019-05-20T06:26:14.847Z,17.30
2019-05-20T06:27:15.002Z,17.22
2019-05-20T06:28:15.158Z,17.28
2019-05-20T06:29:15.307Z,17.15
2019-05-20T06:30:15.459Z,17.14
2019-05-20T06:31:15.614Z,17.13
2019-05-20T06:32:15.829Z,17.07
2019-05-20T06:33:15.928Z,16.96
2019-05-20T06:34:16.082Z,16.95
2019-05-20T06:35:16.237Z,17.03
2019-05-20T06:36:26.375Z,17.11
2019-05-20T06:37:16.544Z,17.00
2019-05-20T06:38:16.699Z,17.00
2019-05-20T06:39:16.851Z,17.13
2019-05-20T06:40:17.008Z,17.18
2019-05-20T06:41:17.160Z,17.17
2019-05-20T06:42:17.313Z,17.15
2019-05-20T06:43:17.466Z,17.14
2019-05-20T06:44:17.650Z,17.17
2019-05-20T06:45:17.775Z,17.36
2019-05-20T06:46:17.929Z,17.06
2019-05-20T06:47:18.084Z,17.06
2019-05-20T06:48:18.238Z,17.06
2019-05-20T06:49:18.391Z,16.95
2019-05-20T06:50:18.543Z,16.85
2019-05-20T06:51:18.701Z,16.83
2019-05-20T06:52:34.930Z,16.83
2019-05-20T06:53:19.007Z,16.81
2019-05-20T06:54:19.164Z,16.80
2019-05-20T06:55:19.320Z,16.93
2019-05-20T06:56:19.466Z,17.04
2019-05-20T06:57:19.617Z,17.18
2019-05-20T06:58:19.785Z,17.08
2019-05-20T06:59:19.926Z,17.33
2019-05-20T07:00:20.077Z,17.41
2019-05-20T07:01:20.231Z,17.50
2019-05-20T07:02:20.385Z,17.59
2019-05-20T07:03:20.539Z,17.70
2019-05-20T07:04:20.694Z,17.78
2019-05-20T07:05:20.847Z,17.69
2019-05-20T07:06:20.998Z,17.73
2019-05-20T07:07:21.553Z,17.79
2019-05-20T07:08:21.313Z,17.76
2019-05-20T07:09:21.467Z,17.85
2019-05-20T07:10:21.620Z,17.91
2019-05-20T07:11:21.784Z,17.84
2019-05-20T07:12:21.929Z,17.78
2019-05-20T07:13:22.080Z,17.64
2019-05-20T07:14:22.237Z,17.69
2019-05-20T07:15:22.387Z,17.84
2019-05-20T07:16:22.546Z,18.04
2019-05-20T07:17:22.700Z,17.88
2019-05-20T07:18:22.854Z,18.00
2019-05-20T07:19:23.009Z,17.88
2019-05-20T07:20:23.162Z,17.85
2019-05-20T07:21:23.316Z,17.99
2019-05-20T07:22:23.475Z,18.03
2019-05-20T07:23:23.625Z,18.04
2019-05-20T07:24:23.781Z,18.21
2019-05-20T07:25:23.939Z,18.13
2019-05-20T07:26:24.082Z,18.12
2019-05-20T07:27:24.237Z,18.03
2019-05-20T07:28:24.413Z,18.22
2019-05-20T07:29:24.559Z,18.42
2019-05-20T07:30:24.705Z,18.37
2019-05-20T07:31:24.857Z,18.47
2019-05-20T07:32:25.010Z,18.68
2019-05-20T07:33:25.165Z,18.76
2019-05-20T07:34:25.336Z,18.70
2019-05-20T07:35:30.682Z,18.79
2019-05-20T07:36:25.633Z,18.62
2019-05-20T07:37:25.785Z,18.64
2019-05-20T07:38:25.943Z,18.82
2019-05-20T07:39:26.090Z,18.84
2019-05-20T07:40:26.247Z,18.79
2019-05-20T07:41:26.400Z,18.87
2019-05-20T07:42:26.552Z,18.83
2019-05-20T07:43:26.712Z,18.95
2019-05-20T07:44:26.860Z,19.05
2019-05-20T07:45:27.023Z,19.31
2019-05-20T07:46:27.169Z,19.24
2019-05-20T07:47:27.325Z,19.23
2019-05-20T07:48:27.679Z,19.46
2019-05-20T07:49:27.635Z,19.35
2019-05-20T07:50:27.787Z,19.29
2019-05-20T07:51:27.942Z,19.61
2019-05-20T07:52:28.099Z,19.78
2019-05-20T07:53:28.268Z,19.55
2019-05-20T07:54:28.407Z,19.55
2019-05-20T07:55:28.562Z,19.79
2019-05-20T07:56:28.722Z,19.93
2019-05-20T07:57:28.873Z,20.05
2019-05-20T07:58:29.029Z,19.97
2019-05-20T07:59:29.185Z,19.87
2019-05-20T08:00:29.346Z,20.12
2019-05-20T08:01:29.543Z,20.05
2019-05-20T08:02:29.648Z,19.91
2019-05-20T08:03:29.803Z,20.00
2019-05-20T08:04:30.146Z,19.95
2019-05-20T08:05:30.114Z,19.88
2019-05-20T08:06:30.264Z,19.66
2019-05-20T08:07:50.277Z,19.72
2019-05-20T08:08:30.578Z,19.88
2019-05-20T08:09:30.742Z,19.90
2019-05-20T08:10:30.889Z,19.83
2019-05-20T08:11:31.044Z,19.83
2019-05-20T08:12:31.199Z,19.84
2019-05-20T08:13:31.359Z,19.94
2019-05-20T08:14:31.516Z,19.83
2019-05-20T08:15:31.669Z,19.88
2019-05-20T08:16:31.854Z,19.94
2019-05-20T08:17:31.959Z,19.84
2019-05-20T08:18:32.146Z,20.02
2019-05-20T08:19:32.307Z,19.91
2019-05-20T08:20:32.457Z,19.94
2019-05-20T08:21:32.638Z,19.95
2019-05-20T08:22:32.766Z,19.84
2019-05-20T08:23:32.927Z,19.95
2019-05-20T08:24:33.139Z,19.91
2019-05-20T08:25:33.233Z,19.94
2019-05-20T08:26:33.400Z,19.98
2019-05-20T08:27:33.545Z,19.97
2019-05-20T08:28:33.700Z,20.08
2019-05-20T08:29:33.854Z,20.09
2019-05-20T08:30:34.011Z,20.15
2019-05-20T08:31:34.182Z,20.24
2019-05-20T08:32:34.327Z,20.28
2019-05-20T08:33:34.520Z,20.25
2019-05-20T08:34:34.806Z,20.42
2019-05-20T08:35:34.804Z,20.42
2019-05-20T08:36:34.953Z,20.46
2019-05-20T08:37:44.743Z,20.56
2019-05-20T08:38:35.263Z,20.61
2019-05-20T08:39:35.418Z,20.62
2019-05-20T08:40:35.578Z,20.61
2019-05-20T08:41:35.738Z,20.59
2019-05-20T08:42:35.880Z,20.76
2019-05-20T08:43:36.037Z,20.77
2019-05-20T08:44:36.253Z,20.86
2019-05-20T08:45:36.352Z,20.71
2019-05-20T08:46:36.503Z,20.61
2019-05-20T08:47:36.664Z,20.84
2019-05-20T08:48:36.824Z,20.80
2019-05-20T08:49:36.993Z,20.95
2019-05-20T08:50:37.138Z,21.14
2019-05-20T08:51:37.300Z,21.34
2019-05-20T08:52:37.448Z,21.30
2019-05-20T08:53:37.606Z,21.34
2019-05-20T08:54:40.283Z,21.21
2019-05-20T08:55:37.932Z,21.24
2019-05-20T08:56:38.069Z,21.38
2019-05-20T08:57:38.239Z,21.38
2019-05-20T08:58:38.389Z,21.42
2019-05-20T08:59:38.544Z,21.66
2019-05-20T09:00:38.700Z,21.72
2019-05-20T09:01:38.855Z,21.76
2019-05-20T09:02:39.039Z,21.82
2019-05-20T09:03:39.176Z,21.69
2019-05-20T09:04:39.351Z,21.75
2019-05-20T09:05:39.551Z,21.57
2019-05-20T09:06:39.640Z,21.39
2019-05-20T09:07:39.794Z,21.24
2019-05-20T09:08:39.950Z,21.04
2019-05-20T09:09:40.132Z,21.17
2019-05-20T09:10:40.258Z,21.21
2019-05-20T09:11:40.431Z,21.32
2019-05-20T09:12:40.572Z,21.16
2019-05-20T09:13:40.792Z,21.11
2019-05-20T09:14:40.881Z,21.14
2019-05-20T09:15:41.045Z,21.13
2019-05-20T09:16:41.191Z,21.11
2019-05-20T09:17:41.353Z,21.14
2019-05-20T09:18:41.504Z,21.27
2019-05-20T09:19:41.663Z,21.45
2019-05-20T09:20:41.845Z,21.44
2019-05-20T09:21:41.977Z,21.46
2019-05-20T09:22:42.132Z,21.50
2019-05-20T09:23:42.280Z,21.56
2019-05-20T09:24:42.453Z,21.38
2019-05-20T09:25:42.616Z,21.42
2019-05-20T09:26:42.757Z,21.41
2019-05-20T09:27:42.897Z,21.54
2019-05-20T09:28:43.084Z,21.63
2019-05-20T09:29:43.208Z,21.74
2019-05-20T09:30:43.364Z,21.79
2019-05-20T09:31:43.519Z,21.74
2019-05-20T09:32:43.675Z,21.75
2019-05-20T09:33:43.847Z,21.71
2019-05-20T09:34:44.120Z,21.53
2019-05-20T09:35:44.140Z,21.46
2019-05-20T09:36:44.296Z,21.50
2019-05-20T09:37:44.452Z,21.53
2019-05-20T09:38:44.607Z,21.54
2019-05-20T09:39:44.765Z,21.54
2019-05-20T09:40:44.921Z,21.51
2019-05-20T09:41:45.082Z,21.63
2019-05-20T09:42:45.233Z,21.60
2019-05-20T09:43:45.459Z,21.56
2019-05-20T09:44:45.551Z,21.51
2019-05-20T09:45:45.709Z,21.56
2019-05-20T09:46:45.863Z,21.63
2019-05-20T09:47:46.019Z,21.66
2019-05-20T09:48:46.172Z,21.66
2019-05-20T09:49:46.330Z,21.72
2019-05-20T09:50:46.486Z,21.79
2019-05-20T09:51:46.642Z,21.67
2019-05-20T09:52:46.801Z,21.74
2019-05-20T09:53:46.955Z,21.72
2019-05-20T09:54:47.112Z,21.69
2019-05-20T09:55:47.266Z,21.81
2019-05-20T09:56:47.420Z,21.71
2019-05-20T09:57:47.575Z,21.81
2019-05-20T09:58:47.735Z,21.88
2019-05-20T09:59:47.888Z,21.81
2019-05-20T10:00:48.045Z,21.88
2019-05-20T10:01:49.791Z,21.91
2019-05-20T10:02:48.354Z,21.88
2019-05-20T10:03:48.513Z,22.06
2019-05-20T10:04:48.666Z,22.07
2019-05-20T10:05:48.821Z,22.07
2019-05-20T10:06:48.981Z,22.19
2019-05-20T10:07:49.137Z,22.37
2019-05-20T10:08:49.297Z,22.59
2019-05-20T10:09:49.448Z,22.71
2019-05-20T10:10:49.629Z,22.92
2019-05-20T10:11:49.799Z,23.14
2019-05-20T10:12:49.916Z,23.19
2019-05-20T10:13:50.074Z,23.12
2019-05-20T10:14:52.768Z,23.07
2019-05-20T10:15:50.406Z,23.23
2019-05-20T10:16:50.545Z,23.43
2019-05-20T10:17:50.697Z,23.65
2019-05-20T10:18:53.085Z,23.67
2019-05-20T10:19:51.017Z,23.77
2019-05-20T10:20:51.229Z,23.75
2019-05-20T10:21:51.342Z,23.72
2019-05-20T10:22:51.501Z,23.71
2019-05-20T10:23:51.681Z,23.80
2019-05-20T10:24:51.801Z,23.75
2019-05-20T10:25:51.956Z,23.49
2019-05-20T10:26:52.114Z,23.58
2019-05-20T10:27:52.271Z,23.50
2019-05-20T10:28:52.431Z,23.49
2019-05-20T10:29:52.589Z,23.52
2019-05-20T10:30:52.745Z,23.22
2019-05-20T10:31:52.901Z,23.01
2019-05-20T10:32:53.063Z,23.09
2019-05-20T10:33:53.216Z,23.05
2019-05-20T10:34:53.378Z,22.96
2019-05-20T10:35:53.537Z,22.80
2019-05-20T10:36:53.694Z,23.02
2019-05-20T10:37:53.845Z,23.04
2019-05-20T10:38:58.980Z,23.05
2019-05-20T10:39:54.163Z,22.84
2019-05-20T10:40:54.325Z,22.72
2019-05-20T10:41:54.476Z,22.74
2019-05-20T10:42:54.635Z,22.65
2019-05-20T10:43:54.790Z,22.72
2019-05-20T10:44:54.952Z,22.90
2019-05-20T10:45:55.110Z,22.97
2019-05-20T10:46:55.266Z,23.04
2019-05-20T10:47:55.429Z,22.78
2019-05-20T10:48:55.580Z,23.17
2019-05-20T10:49:55.738Z,23.19
2019-05-20T10:50:55.897Z,23.14
2019-05-20T10:51:56.051Z,23.12
2019-05-20T10:52:56.210Z,23.19
2019-05-20T10:53:56.377Z,23.22
2019-05-20T10:54:56.529Z,23.46
2019-05-20T10:55:57.111Z,23.31
2019-05-20T10:56:59.626Z,23.32
2019-05-20T10:57:57.033Z,23.34
2019-05-20T10:58:57.189Z,23.23
2019-05-20T10:59:57.350Z,23.35
2019-05-20T11:01:02.353Z,23.34
2019-05-20T11:01:57.668Z,23.24
2019-05-20T11:02:57.825Z,23.26
2019-05-20T11:03:57.975Z,23.22
2019-05-20T11:04:58.131Z,23.15
2019-05-20T11:05:58.286Z,23.05
2019-05-20T11:06:58.444Z,22.84
2019-05-20T11:07:58.604Z,22.93
2019-05-20T11:09:13.104Z,22.84
2019-05-20T11:09:58.921Z,22.77
2019-05-20T11:10:59.077Z,22.56
2019-05-20T11:11:59.308Z,22.43
2019-05-20T11:12:59.393Z,22.46
2019-05-20T11:13:59.554Z,22.53
2019-05-20T11:14:59.705Z,22.54
2019-05-20T11:15:59.861Z,22.75
2019-05-20T11:17:00.018Z,22.84
2019-05-20T11:18:00.176Z,22.86
2019-05-20T11:19:00.332Z,22.87
2019-05-20T11:20:00.491Z,22.87
2019-05-20T11:21:00.648Z,22.86
2019-05-20T11:22:00.801Z,23.02
2019-05-20T11:23:01.440Z,23.07
2019-05-20T11:24:01.120Z,23.15
2019-05-20T11:25:01.288Z,23.04
2019-05-20T11:26:01.430Z,23.19
2019-05-20T11:27:01.591Z,23.32
2019-05-20T11:28:01.748Z,23.46
2019-05-20T11:29:01.903Z,23.31
2019-05-20T11:30:02.092Z,23.46
2019-05-20T11:31:02.211Z,23.27
2019-05-20T11:32:02.369Z,23.40
2019-05-20T11:33:02.527Z,23.68
2019-05-20T11:34:02.684Z,23.67
2019-05-20T11:35:02.843Z,23.67
2019-05-20T11:36:03.006Z,23.75
2019-05-20T11:37:03.162Z,23.52
2019-05-20T11:38:03.319Z,23.43
2019-05-20T11:39:06.680Z,23.67
2019-05-20T11:40:04.864Z,23.95
2019-05-20T11:41:03.791Z,23.79
2019-05-20T11:42:03.955Z,23.62
2019-05-20T11:43:04.106Z,23.46
2019-05-20T11:44:04.275Z,23.40
2019-05-20T11:45:04.425Z,23.55
2019-05-20T11:46:04.580Z,23.49
2019-05-20T11:47:04.742Z,23.52
2019-05-20T11:48:04.893Z,23.65
2019-05-20T11:49:05.050Z,23.72
2019-05-20T11:50:05.209Z,23.87
2019-05-20T11:51:05.410Z,24.13
2019-05-20T11:52:05.523Z,24.14
2019-05-20T11:53:05.680Z,23.97
2019-05-20T11:54:05.840Z,23.55
2019-05-20T11:55:05.996Z,23.43
2019-05-20T11:56:06.160Z,23.39
2019-05-20T11:57:06.312Z,23.27
2019-05-20T11:58:15.735Z,23.20
2019-05-20T11:59:06.632Z,22.83
2019-05-20T12:00:06.784Z,22.62
2019-05-20T12:01:06.941Z,22.17
2019-05-20T12:02:07.101Z,21.90
2019-05-20T12:03:07.258Z,21.83
2019-05-20T12:04:07.416Z,21.59
2019-05-20T12:05:07.571Z,21.36
2019-05-20T12:06:08.038Z,21.13
2019-05-20T12:07:08.726Z,20.96
2019-05-20T12:08:08.047Z,20.84
2019-05-20T12:09:08.202Z,20.87
2019-05-20T12:10:08.358Z,20.72
2019-05-20T12:11:08.516Z,20.59
2019-05-20T12:12:08.670Z,20.64
2019-05-20T12:13:08.827Z,20.59
2019-05-20T12:14:08.983Z,20.42
2019-05-20T12:15:09.140Z,20.35
2019-05-20T12:16:09.298Z,20.58
2019-05-20T12:17:09.448Z,20.35
2019-05-20T12:18:09.607Z,20.24
2019-05-20T12:19:09.767Z,20.23
2019-05-20T12:20:11.871Z,20.23
2019-05-20T12:21:10.077Z,20.12
2019-05-20T12:22:10.233Z,20.16
2019-05-20T12:23:10.386Z,20.25
2019-05-20T12:24:10.548Z,20.24
2019-05-20T12:25:10.697Z,20.42
2019-05-20T12:26:10.853Z,20.41
2019-05-20T12:27:11.007Z,20.41
2019-05-20T12:28:11.163Z,20.50
2019-05-20T12:29:11.320Z,20.58
2019-05-20T12:30:11.546Z,20.71
2019-05-20T12:31:11.627Z,20.83
2019-05-20T12:32:11.780Z,20.87
2019-05-20T12:33:19.715Z,20.99
2019-05-20T12:34:12.101Z,21.01
2019-05-20T12:35:12.261Z,21.23
2019-05-20T12:36:12.412Z,21.23
2019-05-20T12:37:12.567Z,21.32
2019-05-20T12:38:12.730Z,21.45
2019-05-20T12:39:12.887Z,21.36
2019-05-20T12:40:13.040Z,21.53
2019-05-20T12:41:13.198Z,21.71
2019-05-20T12:42:13.514Z,21.72
2019-05-20T12:43:13.534Z,21.82
2019-05-20T12:44:13.689Z,21.76
2019-05-20T12:45:13.844Z,21.71
2019-05-20T12:46:14.001Z,21.91
2019-05-20T12:47:14.156Z,21.75
2019-05-20T12:48:14.310Z,21.53
2019-05-20T12:49:14.593Z,21.66
2019-05-20T12:50:14.621Z,21.74
2019-05-20T12:51:14.959Z,21.94
2019-05-20T12:52:14.931Z,22.01
2019-05-20T12:53:15.087Z,21.95
2019-05-20T12:54:15.243Z,21.98